Maeser, Utah
Current Conditions -  °F | °C
As of 5:53 AM on Saturday 20 Dec 2014 (Local Time) from KVEL Reporting Station
Haze Haze  
Wind Chill: 16°   Ceiling: Unl
Heat Index: 22°   Visibility: 6mi
Dew Point: 20°   Wind: 5mph
Humidity: 92%   Direction: 260°W
Pressure: 30.18"   Gusts: NA
Location:  40.1055°N, 109.498°W
Report Text: KVEL 201253Z AUTO 26004KT 6SM BR SCT027 M06/M07 A3018 RMK AO2 SLP252 T10561067
Loading
Personal Weather Stations






























Interactive Weather Map New forecast layout! Learn more

10-Day Weather Forecast

Advertisements
Track Severe Weather on mobile